Time;durP1;ratioP1;P1;durP2;ratioP2;P2;SDS_P1;SDS_P2;PMS_P1;PMS_P2;Temp;Humidity;BMP_temperature;BMP_pressure;BME280_temperature;BME280_humidity;BME280_pressure;Samples;Min_cycle;Max_cycle;Signal;HPM_P1;HPM_P2
2023/09/04 00:01:40;;;;;;;11.35;8.60;;;17.80;99.90;;;;;;5060932;28;20029;-74
2023/09/04 00:04:06;;;;;;;12.60;8.80;;;17.70;99.90;;;;;;5073542;28;20504;-74
2023/09/04 00:06:32;;;;;;;11.60;10.45;;;17.70;99.90;;;;;;5069482;28;20025;-74
2023/09/04 00:09:00;;;;;;;12.40;10.93;;;17.60;99.90;;;;;;5073889;28;20037;-74
2023/09/04 00:11:27;;;;;;;17.05;10.75;;;17.50;99.90;;;;;;5067506;28;20069;-74
2023/09/04 00:13:53;;;;;;;12.07;10.55;;;17.60;99.90;;;;;;5076600;28;20028;-74
2023/09/04 00:16:19;;;;;;;11.43;10.32;;;17.50;99.90;;;;;;5069206;28;20021;-74
2023/09/04 00:18:45;;;;;;;13.88;10.15;;;17.50;99.90;;;;;;5076586;28;20039;-74
2023/09/04 00:21:11;;;;;;;14.07;10.02;;;17.50;99.90;;;;;;5067057;28;20694;-74
2023/09/04 00:23:36;;;;;;;12.95;11.27;;;17.50;99.90;;;;;;5078152;28;20016;-74
2023/09/04 00:26:02;;;;;;;12.98;11.32;;;17.50;99.90;;;;;;5067618;28;20040;-74
2023/09/04 00:28:28;;;;;;;11.98;10.70;;;17.50;99.90;;;;;;5077648;28;20036;-74
2023/09/04 00:30:54;;;;;;;13.60;11.07;;;17.50;99.90;;;;;;5075844;28;20025;-74
2023/09/04 00:33:19;;;;;;;13.68;11.68;;;17.50;99.90;;;;;;5069154;28;20074;-74
2023/09/04 00:35:45;;;;;;;11.80;10.27;;;17.50;99.90;;;;;;5067584;28;20070;-74
2023/09/04 00:38:11;;;;;;;11.25;10.05;;;17.40;99.90;;;;;;5075319;28;20089;-74
2023/09/04 00:40:37;;;;;;;11.18;9.43;;;17.40;99.90;;;;;;5077785;28;20312;-74
2023/09/04 00:43:03;;;;;;;10.35;8.98;;;17.40;99.90;;;;;;5073523;28;20062;-75
2023/09/04 00:45:29;;;;;;;14.07;10.13;;;17.20;99.90;;;;;;5071316;28;20056;-74
2023/09/04 00:47:55;;;;;;;14.95;11.38;;;17.20;99.90;;;;;;5077365;28;20114;-74
2023/09/04 00:50:25;;;;;;;15.70;11.50;;;17.20;99.90;;;;;;5076843;28;20545;-74
2023/09/04 00:52:55;;;;;;;14.65;12.40;;;17.10;99.90;;;;;;5064608;28;20025;-74
2023/09/04 00:55:21;;;;;;;12.70;11.40;;;17.00;99.90;;;;;;5075693;28;20092;-74
2023/09/04 00:57:47;;;;;;;14.13;12.63;;;16.90;99.90;;;;;;5069949;28;20058;-74
2023/09/04 01:00:14;;;;;;;12.50;11.20;;;16.90;99.90;;;;;;5071154;28;20582;-74
2023/09/04 01:02:40;;;;;;;12.63;11.10;;;16.80;99.90;;;;;;5071383;28;20021;-74
2023/09/04 01:05:07;;;;;;;13.80;10.93;;;16.80;99.90;;;;;;5070628;28;20021;-74
2023/09/04 01:07:33;;;;;;;14.05;11.15;;;16.70;99.90;;;;;;5079447;28;20105;-74
2023/09/04 01:10:00;;;;;;;13.65;11.65;;;16.70;99.90;;;;;;5066909;28;20077;-74
2023/09/04 01:12:49;;;;;;;16.88;12.55;;;16.50;99.90;;;;;;5079525;28;20016;-74
2023/09/04 01:15:14;;;;;;;15.30;11.23;;;16.60;99.90;;;;;;5057574;28;20033;-74
2023/09/04 01:17:42;;;;;;;12.38;11.07;;;16.70;99.90;;;;;;5079713;28;20072;-74
2023/09/04 01:20:28;;;;;;;14.68;11.75;;;16.70;99.90;;;;;;5064149;28;20037;-74
2023/09/04 01:22:57;;;;;;;13.57;11.43;;;16.70;99.90;;;;;;5075243;28;20024;-75
2023/09/04 01:25:28;;;;;;;20.33;13.00;;;16.70;99.90;;;;;;5071330;28;20366;-74
2023/09/04 01:28:28;;;;;;;15.25;12.40;;;16.70;99.90;;;;;;5071080;28;20037;-75
2023/09/04 01:31:15;;;;;;;12.77;11.38;;;16.70;99.90;;;;;;5051180;28;20033;-74
2023/09/04 01:33:49;;;;;;;13.48;11.50;;;16.70;99.90;;;;;;5069308;28;20024;-75
2023/09/04 01:36:16;;;;;;;14.65;11.88;;;16.70;99.90;;;;;;5076105;28;20075;-74
2023/09/04 01:38:45;;;;;;;17.27;12.65;;;16.70;99.90;;;;;;5070439;28;20017;-74
2023/09/04 01:41:11;;;;;;;15.05;12.95;;;16.70;99.90;;;;;;5065265;28;20423;-74
2023/09/04 01:43:37;;;;;;;16.48;13.90;;;16.60;99.90;;;;;;5069464;28;20025;-75
2023/09/04 01:46:03;;;;;;;15.85;12.77;;;16.60;99.90;;;;;;5076256;28;20036;-75
2023/09/04 01:48:28;;;;;;;16.13;12.15;;;16.60;99.90;;;;;;5065385;28;20045;-74
2023/09/04 01:50:54;;;;;;;13.82;12.32;;;16.60;99.90;;;;;;5075224;28;20095;-75
2023/09/04 01:53:21;;;;;;;13.43;12.02;;;16.60;99.90;;;;;;5070264;28;20412;-74
2023/09/04 01:55:47;;;;;;;13.57;12.20;;;16.60;99.90;;;;;;5073517;28;20025;-75
2023/09/04 01:58:13;;;;;;;12.52;11.35;;;16.60;99.90;;;;;;5077212;28;20358;-75
2023/09/04 02:00:38;;;;;;;13.25;9.45;;;16.50;99.90;;;;;;5073228;28;20373;-75
2023/09/04 02:03:04;;;;;;;12.70;10.05;;;16.40;99.90;;;;;;5084058;28;20496;-75
2023/09/04 02:05:30;;;;;;;17.80;10.55;;;16.40;99.90;;;;;;5071326;28;20036;-78
2023/09/04 02:07:55;;;;;;;11.25;9.75;;;16.40;99.90;;;;;;5081813;28;20488;-75
2023/09/04 02:10:23;;;;;;;11.00;9.15;;;16.40;99.90;;;;;;5075773;28;20024;-75
2023/09/04 02:12:49;;;;;;;14.85;10.45;;;16.40;99.90;;;;;;5072855;28;20024;-74
2023/09/04 02:15:16;;;;;;;12.25;10.95;;;16.30;99.90;;;;;;5071031;28;20020;-75
2023/09/04 02:17:41;;;;;;;11.13;9.20;;;16.30;99.90;;;;;;5078587;28;20024;-74
2023/09/04 02:20:07;;;;;;;12.57;9.80;;;16.20;99.90;;;;;;5088798;28;20021;-74
2023/09/04 02:22:33;;;;;;;12.13;9.63;;;16.10;99.90;;;;;;5079638;28;20024;-75
2023/09/04 02:24:59;;;;;;;13.18;10.65;;;16.10;99.90;;;;;;5076718;28;20028;-74
2023/09/04 02:27:24;;;;;;;11.55;9.95;;;16.10;99.90;;;;;;5069963;28;20033;-75
2023/09/04 02:29:50;;;;;;;13.43;10.55;;;16.00;99.90;;;;;;5077176;28;20036;-74
2023/09/04 02:32:16;;;;;;;12.70;10.80;;;16.00;99.90;;;;;;5077204;28;20502;-75
2023/09/04 02:34:41;;;;;;;12.68;11.23;;;16.00;99.90;;;;;;5072134;28;20046;-74
2023/09/04 02:37:07;;;;;;;17.10;11.52;;;16.10;99.90;;;;;;5072940;28;20249;-74
2023/09/04 02:39:32;;;;;;;11.77;10.60;;;16.10;99.90;;;;;;5081068;28;20375;-74
2023/09/04 02:41:59;;;;;;;15.10;11.43;;;16.00;99.90;;;;;;5072764;28;20523;-74
2023/09/04 02:44:24;;;;;;;12.68;9.98;;;16.00;99.90;;;;;;5078959;28;20034;-75
2023/09/04 02:46:50;;;;;;;12.90;11.00;;;16.00;99.90;;;;;;5072350;28;20024;-74
2023/09/04 02:49:16;;;;;;;15.88;11.27;;;16.00;99.90;;;;;;5078095;28;20111;-74
2023/09/04 02:51:41;;;;;;;12.93;11.05;;;15.80;99.90;;;;;;5072653;28;20372;-74
2023/09/04 02:54:08;;;;;;;16.45;12.00;;;15.80;99.90;;;;;;5073409;28;20476;-74
2023/09/04 02:56:33;;;;;;;16.70;13.00;;;15.80;99.90;;;;;;5073153;28;20033;-75
2023/09/04 02:58:59;;;;;;;18.45;11.77;;;15.90;99.90;;;;;;5077829;28;20442;-75
2023/09/04 03:01:25;;;;;;;14.20;12.38;;;15.90;99.90;;;;;;5083107;28;20480;-74
2023/09/04 03:03:50;;;;;;;20.60;15.05;;;15.90;99.90;;;;;;5075588;28;20016;-74
2023/09/04 03:06:16;;;;;;;16.58;13.48;;;15.80;99.90;;;;;;5064143;28;20378;-74
2023/09/04 03:08:41;;;;;;;19.33;14.10;;;15.70;99.90;;;;;;5068918;28;20040;-75
2023/09/04 03:11:09;;;;;;;19.42;15.95;;;15.70;99.90;;;;;;5067940;28;20111;-74
2023/09/04 03:13:36;;;;;;;21.67;16.92;;;15.60;99.90;;;;;;5073951;28;20477;-74
2023/09/04 03:16:03;;;;;;;20.95;16.60;;;15.70;99.90;;;;;;5073354;28;20029;-74
2023/09/04 03:18:28;;;;;;;21.80;15.60;;;15.60;99.90;;;;;;5071474;28;20070;-74
2023/09/04 03:20:56;;;;;;;24.73;15.82;;;15.60;99.90;;;;;;5067171;28;20048;-74
2023/09/04 03:23:21;;;;;;;17.90;15.63;;;15.50;99.90;;;;;;5075518;28;20092;-74
2023/09/04 03:25:47;;;;;;;24.13;17.40;;;15.50;99.90;;;;;;5071093;28;20051;-74
2023/09/04 03:28:13;;;;;;;20.35;17.05;;;15.60;99.90;;;;;;5065715;28;20032;-74
2023/09/04 03:30:38;;;;;;;21.77;16.65;;;15.60;99.90;;;;;;5075753;28;20020;-74
2023/09/04 03:33:04;;;;;;;23.10;17.67;;;15.70;99.90;;;;;;5070785;28;20025;-74
2023/09/04 03:35:30;;;;;;;22.60;17.80;;;15.70;99.90;;;;;;5078960;28;20042;-74
2023/09/04 03:37:55;;;;;;;21.75;15.65;;;15.70;99.90;;;;;;5073535;28;20474;-74
2023/09/04 03:40:23;;;;;;;21.75;16.73;;;15.60;99.90;;;;;;5078246;28;20492;-74
2023/09/04 03:42:49;;;;;;;21.98;16.30;;;15.60;99.90;;;;;;5069374;28;20163;-74
2023/09/04 03:45:14;;;;;;;24.50;18.15;;;15.60;99.90;;;;;;5066100;28;20551;-74
2023/09/04 03:47:41;;;;;;;24.55;19.33;;;15.60;99.90;;;;;;5078077;28;20072;-74
2023/09/04 03:50:13;;;;;;;27.27;20.70;;;15.60;99.90;;;;;;5067913;28;20021;-74
2023/09/04 03:52:40;;;;;;;27.08;20.27;;;15.60;99.90;;;;;;5072237;28;20023;-74
2023/09/04 03:55:07;;;;;;;26.73;19.27;;;15.60;99.90;;;;;;5073226;28;20028;-74
2023/09/04 03:57:36;;;;;;;25.50;19.27;;;15.60;99.90;;;;;;5067110;28;20036;-74
2023/09/04 04:00:03;;;;;;;27.95;19.63;;;15.60;99.90;;;;;;5067892;28;20469;-74
2023/09/04 04:02:30;;;;;;;25.35;20.25;;;15.60;99.90;;;;;;5075040;28;20029;-74
2023/09/04 04:04:56;;;;;;;25.92;19.63;;;15.60;99.90;;;;;;5066729;28;20020;-74
2023/09/04 04:07:21;;;;;;;26.75;20.35;;;15.60;99.90;;;;;;5078366;28;20047;-74
2023/09/04 04:09:47;;;;;;;28.48;21.75;;;15.60;99.90;;;;;;5073863;28;20660;-74
2023/09/04 04:12:16;;;;;;;28.45;21.70;;;15.60;99.90;;;;;;5068120;28;20028;-74
2023/09/04 04:14:41;;;;;;;25.88;19.48;;;15.60;99.90;;;;;;5071357;28;20028;-74
2023/09/04 04:17:08;;;;;;;28.77;20.80;;;15.60;99.90;;;;;;5076092;28;20399;-74
2023/09/04 04:19:34;;;;;;;28.73;22.55;;;15.60;99.90;;;;;;5069774;28;20021;-74
2023/09/04 04:22:00;;;;;;;31.75;23.40;;;15.50;99.90;;;;;;5070123;28;20024;-74
2023/09/04 04:24:27;;;;;;;29.80;24.92;;;15.60;99.90;;;;;;5081369;28;20012;-73
2023/09/04 04:26:53;;;;;;;31.13;24.75;;;15.50;99.90;;;;;;5068725;28;20020;-74
2023/09/04 04:29:18;;;;;;;28.55;22.48;;;15.50;99.90;;;;;;5077640;28;20093;-74
2023/09/04 04:31:45;;;;;;;31.20;25.23;;;15.50;99.90;;;;;;5072151;28;20029;-73
2023/09/04 04:34:11;;;;;;;30.83;24.83;;;15.50;99.90;;;;;;5079947;28;20032;-73
2023/09/04 04:36:37;;;;;;;33.17;26.48;;;15.50;99.90;;;;;;5074334;28;20088;-73
2023/09/04 04:39:03;;;;;;;34.42;24.60;;;15.50;99.90;;;;;;5077929;28;20497;-73
2023/09/04 04:41:31;;;;;;;35.97;26.52;;;15.50;99.90;;;;;;5086513;28;20063;-73
2023/09/04 04:43:56;;;;;;;34.00;25.98;;;15.40;99.90;;;;;;5077399;28;20012;-73
2023/09/04 04:46:22;;;;;;;32.08;25.35;;;15.50;99.90;;;;;;5071947;28;20070;-73
2023/09/04 04:48:49;;;;;;;35.53;24.85;;;15.40;99.90;;;;;;5073686;28;20617;-73
2023/09/04 04:51:14;;;;;;;32.72;24.88;;;15.50;99.90;;;;;;5079931;28;20027;-73
2023/09/04 04:53:40;;;;;;;30.88;24.05;;;15.50;99.90;;;;;;5070327;28;20012;-73
2023/09/04 04:56:06;;;;;;;37.60;25.77;;;15.50;99.90;;;;;;5066966;28;20984;-73
2023/09/04 04:58:31;;;;;;;35.72;25.90;;;15.50;99.90;;;;;;5071773;28;20385;-73
2023/09/04 05:00:57;;;;;;;33.85;26.23;;;15.40;99.90;;;;;;5068317;28;20369;-73
2023/09/04 05:03:23;;;;;;;31.38;23.50;;;15.50;99.90;;;;;;5069224;28;20734;-73
2023/09/04 05:05:49;;;;;;;31.05;24.30;;;15.40;99.90;;;;;;5077111;28;20488;-73
2023/09/04 05:08:14;;;;;;;35.47;25.00;;;15.50;99.90;;;;;;5070395;28;20040;-73
2023/09/04 05:10:40;;;;;;;34.58;24.25;;;15.40;99.90;;;;;;5077327;28;20024;-73
2023/09/04 05:13:06;;;;;;;29.75;24.02;;;15.50;99.90;;;;;;5065705;28;20016;-73
2023/09/04 05:15:31;;;;;;;31.27;25.52;;;15.40;99.90;;;;;;5072810;28;20092;-74
2023/09/04 05:17:57;;;;;;;31.33;23.90;;;15.40;99.90;;;;;;5080228;28;20024;-74
2023/09/04 05:20:23;;;;;;;31.38;25.83;;;15.40;99.90;;;;;;5070165;28;20032;-74
2023/09/04 05:22:48;;;;;;;31.13;24.42;;;15.40;99.90;;;;;;5073396;28;20021;-74
2023/09/04 05:25:14;;;;;;;31.27;25.23;;;15.30;99.90;;;;;;5064572;28;20047;-75
2023/09/04 05:27:40;;;;;;;32.70;25.58;;;15.40;99.90;;;;;;5081325;28;20373;-72
2023/09/04 05:30:06;;;;;;;31.50;24.98;;;15.40;99.90;;;;;;5071130;28;20020;-74
2023/09/04 05:32:32;;;;;;;35.75;26.08;;;15.50;99.90;;;;;;5072192;28;20016;-72
2023/09/04 05:34:58;;;;;;;40.72;29.02;;;15.50;99.90;;;;;;5077459;28;20027;-72
2023/09/04 05:37:24;;;;;;;35.85;25.95;;;15.50;99.90;;;;;;5069153;28;20029;-73
2023/09/04 05:39:49;;;;;;;32.75;24.02;;;15.60;99.90;;;;;;5081960;28;20021;-72
2023/09/04 05:42:15;;;;;;;30.90;23.63;;;15.60;99.90;;;;;;5072446;28;20586;-73
2023/09/04 05:44:41;;;;;;;30.08;23.58;;;15.70;99.90;;;;;;5078903;28;20384;-74
2023/09/04 05:47:07;;;;;;;32.10;22.75;;;15.70;99.90;;;;;;5079011;28;20024;-75
2023/09/04 05:49:32;;;;;;;32.13;23.65;;;15.70;99.90;;;;;;5068872;28;20032;-73
2023/09/04 05:51:58;;;;;;;33.42;24.17;;;15.80;99.90;;;;;;5074987;28;20508;-72
2023/09/04 05:54:24;;;;;;;36.78;24.80;;;15.80;99.90;;;;;;5078447;28;20031;-75
2023/09/04 05:56:50;;;;;;;30.67;24.13;;;15.80;99.90;;;;;;5076644;28;20039;-73
2023/09/04 05:59:15;;;;;;;35.63;25.15;;;15.80;99.90;;;;;;5085628;28;20028;-74
2023/09/04 06:01:41;;;;;;;30.42;22.83;;;15.80;99.90;;;;;;5071227;28;20154;-74
2023/09/04 06:04:07;;;;;;;33.42;23.88;;;15.80;99.90;;;;;;5075199;28;20057;-72
2023/09/04 06:06:33;;;;;;;36.75;25.27;;;15.80;99.90;;;;;;5083583;28;20035;-71
2023/09/04 06:08:58;;;;;;;32.85;23.90;;;15.80;99.90;;;;;;5068973;28;20094;-72
2023/09/04 06:11:24;;;;;;;29.73;22.40;;;15.80;99.90;;;;;;5069843;28;20016;-71
2023/09/04 06:13:50;;;;;;;31.15;23.70;;;15.80;99.90;;;;;;5078563;28;20476;-71
2023/09/04 06:16:19;;;;;;;35.08;25.20;;;15.90;99.90;;;;;;5073478;28;20021;-71
2023/09/04 06:18:44;;;;;;;37.60;25.25;;;15.90;99.90;;;;;;5076814;28;20410;-72
2023/09/04 06:21:10;;;;;;;34.90;25.42;;;15.90;99.90;;;;;;5078159;28;20020;-71
2023/09/04 06:23:36;;;;;;;30.75;24.13;;;16.00;99.90;;;;;;5069489;28;20082;-72
2023/09/04 06:26:02;;;;;;;31.58;26.10;;;16.00;99.90;;;;;;5077179;28;20027;-70
2023/09/04 06:28:28;;;;;;;30.83;25.02;;;16.10;99.90;;;;;;5071908;28;20036;-71
2023/09/04 06:30:57;;;;;;;34.97;25.58;;;16.10;99.90;;;;;;5071790;28;20024;-72
2023/09/04 06:33:29;;;;;;;33.72;23.77;;;16.20;99.90;;;;;;5069018;28;20028;-72
2023/09/04 06:35:54;;;;;;;36.17;26.63;;;16.20;99.90;;;;;;5074733;28;20033;-71
2023/09/04 06:38:20;;;;;;;31.55;25.95;;;16.20;99.90;;;;;;5072511;28;20044;-71
2023/09/04 06:40:46;;;;;;;32.42;25.50;;;16.30;99.90;;;;;;5072095;28;20081;-71
2023/09/04 06:43:12;;;;;;;32.92;27.00;;;16.30;99.90;;;;;;5066673;28;20024;-71
2023/09/04 06:45:38;;;;;;;33.13;27.23;;;16.40;99.90;;;;;;5084618;28;20496;-73
2023/09/04 06:48:07;;;;;;;39.13;28.27;;;16.40;99.90;;;;;;5066679;28;20025;-72
2023/09/04 06:50:33;;;;;;;41.50;29.23;;;16.40;99.90;;;;;;5068457;28;20052;-71
2023/09/04 06:52:59;;;;;;;31.42;25.75;;;16.40;99.90;;;;;;5078416;28;20411;-71
2023/09/04 06:55:25;;;;;;;46.72;31.50;;;16.50;99.90;;;;;;5068358;28;20029;-71
2023/09/04 06:57:51;;;;;;;44.42;30.77;;;16.40;99.90;;;;;;5074654;28;20032;-71
2023/09/04 07:00:17;;;;;;;36.45;27.23;;;16.40;99.90;;;;;;5078770;28;20570;-71
2023/09/04 07:02:43;;;;;;;37.00;25.10;;;16.50;99.90;;;;;;5071038;28;20050;-70
2023/09/04 07:05:09;;;;;;;38.55;27.90;;;16.40;99.90;;;;;;5074803;28;20052;-71
2023/09/04 07:07:37;;;;;;;38.40;28.80;;;16.40;99.90;;;;;;5071006;28;20133;-71
2023/09/04 07:10:04;;;;;;;34.55;26.70;;;16.40;99.90;;;;;;5078123;28;20105;-71
2023/09/04 07:12:33;;;;;;;33.25;26.63;;;16.50;99.90;;;;;;5067803;28;20036;-72
2023/09/04 07:14:58;;;;;;;34.33;25.55;;;16.50;99.90;;;;;;5066591;28;20020;-72
2023/09/04 07:17:24;;;;;;;29.77;24.15;;;16.60;99.90;;;;;;5064846;28;20051;-72
2023/09/04 07:19:50;;;;;;;25.65;19.80;;;16.70;99.90;;;;;;5074862;28;20024;-72
2023/09/04 07:22:16;;;;;;;31.15;23.20;;;16.80;99.90;;;;;;5068355;28;20035;-72
2023/09/04 07:24:41;;;;;;;30.17;22.95;;;16.90;99.90;;;;;;5070398;28;20017;-72
2023/09/04 07:27:07;;;;;;;29.27;22.75;;;17.00;99.90;;;;;;5069888;28;20075;-73
2023/09/04 07:29:33;;;;;;;28.58;21.65;;;17.00;99.90;;;;;;5073205;28;20036;-72
2023/09/04 07:31:59;;;;;;;28.98;22.40;;;17.10;99.90;;;;;;5075289;28;20028;-73
2023/09/04 07:34:25;;;;;;;25.15;19.50;;;17.20;99.90;;;;;;5069815;28;20026;-73
2023/09/04 07:36:52;;;;;;;32.85;22.98;;;17.20;99.90;;;;;;5073271;28;20029;-73
2023/09/04 07:39:18;;;;;;;30.60;22.33;;;17.30;99.90;;;;;;5068264;28;20066;-73
2023/09/04 07:41:44;;;;;;;25.98;19.95;;;17.40;99.90;;;;;;5072068;28;20036;-71
2023/09/04 07:44:09;;;;;;;27.10;20.48;;;17.60;99.90;;;;;;5074259;28;20017;-72
2023/09/04 07:46:35;;;;;;;29.33;19.60;;;17.60;99.90;;;;;;5067212;28;20064;-72
2023/09/04 07:49:00;;;;;;;23.42;20.05;;;17.70;99.90;;;;;;5069521;28;20032;-72
2023/09/04 07:51:26;;;;;;;29.67;21.65;;;17.80;99.90;;;;;;5077904;28;20982;-73
2023/09/04 07:53:52;;;;;;;23.15;19.17;;;17.90;99.90;;;;;;5075261;28;20484;-72
2023/09/04 07:56:18;;;;;;;24.10;19.45;;;17.90;99.90;;;;;;5081905;28;20031;-72
2023/09/04 07:58:44;;;;;;;25.30;20.65;;;18.00;99.90;;;;;;5067699;28;20025;-72
2023/09/04 08:01:13;;;;;;;24.65;19.02;;;18.20;99.90;;;;;;5072445;28;20175;-73
2023/09/04 08:03:40;;;;;;;23.30;18.50;;;18.30;99.90;;;;;;5079670;28;20438;-75
2023/09/04 08:06:07;;;;;;;20.40;17.13;;;18.40;99.90;;;;;;5068737;28;20516;-73
2023/09/04 08:08:32;;;;;;;20.38;15.95;;;18.60;99.90;;;;;;5066650;28;20042;-74
2023/09/04 08:10:58;;;;;;;25.17;16.70;;;18.70;99.90;;;;;;5077811;28;20485;-74
2023/09/04 08:13:24;;;;;;;18.63;14.50;;;18.80;99.90;;;;;;5067055;28;20042;-73
2023/09/04 08:15:49;;;;;;;17.85;14.35;;;18.90;99.90;;;;;;5068881;28;20012;-74
2023/09/04 08:18:15;;;;;;;17.25;13.18;;;19.00;99.90;;;;;;5067026;28;20025;-74
2023/09/04 08:20:41;;;;;;;14.57;13.05;;;19.10;99.90;;;;;;5064340;28;20100;-74
2023/09/04 08:23:09;;;;;;;15.48;12.20;;;19.20;99.90;;;;;;5070227;28;20152;-74
2023/09/04 08:25:39;;;;;;;15.38;12.82;;;19.40;99.90;;;;;;5071226;28;20104;-73
2023/09/04 08:28:10;;;;;;;18.95;11.07;;;19.50;99.90;;;;;;5070266;28;20027;-74
2023/09/04 08:30:36;;;;;;;11.95;10.20;;;19.70;99.90;;;;;;5073456;28;20040;-74
2023/09/04 08:33:01;;;;;;;11.65;10.45;;;19.70;99.90;;;;;;5068836;28;20028;-73
2023/09/04 08:35:28;;;;;;;12.98;10.32;;;19.80;99.90;;;;;;5067917;28;20058;-73
2023/09/04 08:37:54;;;;;;;10.90;9.80;;;20.00;99.90;;;;;;5077404;28;20135;-74
2023/09/04 08:40:20;;;;;;;10.88;9.77;;;20.10;99.90;;;;;;5072004;28;20024;-73
2023/09/04 08:42:48;;;;;;;12.80;8.90;;;20.20;99.90;;;;;;5064900;28;20021;-73
2023/09/04 08:45:17;;;;;;;11.73;9.48;;;20.30;99.90;;;;;;5072207;28;20025;-71
2023/09/04 08:47:43;;;;;;;9.82;8.82;;;20.40;99.90;;;;;;5059684;28;20095;-71
2023/09/04 08:50:12;;;;;;;11.55;9.05;;;20.50;99.90;;;;;;5069911;28;20020;-73
2023/09/04 08:52:40;;;;;;;10.68;9.57;;;20.50;99.90;;;;;;5065476;28;20067;-73
2023/09/04 08:55:06;;;;;;;9.95;8.93;;;20.60;99.90;;;;;;5078736;28;20104;-73
2023/09/04 08:57:33;;;;;;;11.65;9.20;;;20.70;99.90;;;;;;5068314;28;20017;-74
2023/09/04 08:59:59;;;;;;;9.65;7.30;;;20.80;99.90;;;;;;5076870;28;20074;-74
2023/09/04 09:02:25;;;;;;;11.73;7.60;;;20.90;99.90;;;;;;5071977;28;20051;-74
2023/09/04 09:04:52;;;;;;;10.77;8.77;;;21.00;99.90;;;;;;5073952;28;20013;-74
2023/09/04 09:07:23;;;;;;;10.18;7.95;;;21.20;99.90;;;;;;5070536;28;20032;-74
2023/09/04 09:09:52;;;;;;;9.90;7.20;;;21.20;99.90;;;;;;5077013;28;20048;-75
2023/09/04 09:12:18;;;;;;;9.77;7.25;;;21.40;99.90;;;;;;5074315;28;20021;-75
2023/09/04 09:14:43;;;;;;;9.77;6.90;;;21.50;99.90;;;;;;5074619;28;20129;-72
2023/09/04 09:17:13;;;;;;;8.88;7.05;;;21.70;99.90;;;;;;5072588;28;20029;-72
2023/09/04 09:19:39;;;;;;;8.85;6.70;;;21.80;99.90;;;;;;5070755;28;20034;-74
2023/09/04 09:22:19;;;;;;;8.32;6.00;;;21.80;99.90;;;;;;5067123;28;20021;-74
2023/09/04 09:24:56;;;;;;;7.15;6.43;;;22.00;99.90;;;;;;5073092;28;20103;-73
2023/09/04 09:27:31;;;;;;;8.68;6.60;;;22.20;99.90;;;;;;5071520;28;20024;-73
2023/09/04 09:29:58;;;;;;;6.32;5.72;;;22.30;99.90;;;;;;5071217;28;20028;-74
2023/09/04 09:32:28;;;;;;;7.25;5.72;;;22.40;99.90;;;;;;5072234;28;20035;-73
2023/09/04 09:34:55;;;;;;;5.82;5.13;;;22.60;99.90;;;;;;5070785;28;20024;-74
2023/09/04 09:37:23;;;;;;;6.88;5.45;;;22.90;99.90;;;;;;5080114;28;20031;-73
2023/09/04 09:39:49;;;;;;;5.88;5.18;;;23.00;99.90;;;;;;5074594;28;20028;-72
2023/09/04 09:42:15;;;;;;;8.52;5.65;;;23.20;99.90;;;;;;5070317;28;20430;-75
2023/09/04 09:44:41;;;;;;;6.90;5.38;;;23.30;99.90;;;;;;5067478;28;20625;-74
2023/09/04 09:47:09;;;;;;;6.20;5.60;;;23.50;99.90;;;;;;5066952;28;20023;-74
2023/09/04 09:49:36;;;;;;;8.63;5.22;;;23.60;99.90;;;;;;5075866;28;20044;-74
2023/09/04 09:52:04;;;;;;;7.43;5.47;;;23.70;99.90;;;;;;5070453;28;20028;-75
2023/09/04 09:54:35;;;;;;;6.85;5.45;;;23.80;99.90;;;;;;5076894;28;20030;-75
2023/09/04 09:57:03;;;;;;;4.60;4.03;;;23.80;99.90;;;;;;5067283;28;20082;-74
2023/09/04 09:59:32;;;;;;;5.72;4.28;;;24.00;99.90;;;;;;5070831;28;20051;-73
2023/09/04 10:02:00;;;;;;;5.57;4.05;;;24.20;99.90;;;;;;5078411;28;20032;-72
2023/09/04 10:04:27;;;;;;;6.82;4.72;;;24.40;99.90;;;;;;5064852;28;20017;-73
2023/09/04 10:06:54;;;;;;;5.22;4.32;;;24.50;99.90;;;;;;5073098;28;20033;-73
2023/09/04 10:09:23;;;;;;;5.95;4.32;;;24.50;99.90;;;;;;5071620;28;20468;-74
2023/09/04 10:11:58;;;;;;;4.47;4.07;;;24.60;99.90;;;;;;5072853;28;20025;-75
2023/09/04 10:14:32;;;;;;;6.70;4.20;;;24.70;99.90;;;;;;5073292;28;20085;-76
2023/09/04 10:17:01;;;;;;;5.07;3.88;;;24.70;99.90;;;;;;5076480;28;20038;-75
2023/09/04 10:19:33;;;;;;;4.60;4.20;;;24.70;99.90;;;;;;5081841;28;20028;-75
2023/09/04 10:22:22;;;;;;;6.28;4.20;;;24.80;99.90;;;;;;5072102;28;20032;-75
2023/09/04 10:25:15;;;;;;;5.05;4.65;;;24.80;99.90;;;;;;5081550;28;20074;-73
2023/09/04 10:27:52;;;;;;;4.80;4.20;;;24.90;99.90;;;;;;5049250;28;20072;-74
2023/09/04 10:30:23;;;;;;;6.18;4.22;;;25.10;99.90;;;;;;5065527;28;20478;-73
2023/09/04 10:32:49;;;;;;;4.07;3.78;;;25.30;99.90;;;;;;5066195;28;20130;-73
2023/09/04 10:35:15;;;;;;;5.85;3.70;;;25.30;99.90;;;;;;5076837;28;20096;-75
2023/09/04 10:37:42;;;;;;;4.28;3.58;;;25.30;99.90;;;;;;5085377;28;20162;-75
2023/09/04 10:40:10;;;;;;;4.32;3.97;;;25.40;99.90;;;;;;5074444;28;20035;-73
2023/09/04 10:42:41;;;;;;;4.18;3.78;;;25.50;99.90;;;;;;5068234;28;20021;-74
2023/09/04 10:45:15;;;;;;;2.97;2.78;;;25.60;99.90;;;;;;5076662;28;20048;-74
2023/09/04 10:47:48;;;;;;;4.35;3.40;;;25.70;99.90;;;;;;5073245;28;20024;-74
2023/09/04 10:50:26;;;;;;;2.97;2.78;;;25.80;99.90;;;;;;5073473;28;20028;-74
2023/09/04 10:52:52;;;;;;;3.40;3.08;;;25.90;99.90;;;;;;5072279;28;20066;-75
2023/09/04 10:55:18;;;;;;;3.88;3.50;;;26.00;99.90;;;;;;5079584;28;20532;-75
2023/09/04 10:58:05;;;;;;;3.50;3.15;;;26.10;99.90;;;;;;5076732;28;20317;-75
2023/09/04 11:00:33;;;;;;;4.05;3.33;;;26.20;99.90;;;;;;5074230;28;20020;-75
2023/09/04 11:03:21;;;;;;;3.75;3.45;;;26.40;99.90;;;;;;5075754;28;20042;-75
2023/09/04 11:06:20;;;;;;;4.13;2.80;;;26.30;99.90;;;;;;5065842;28;20041;-75
2023/09/04 11:09:17;;;;;;;2.95;2.50;;;26.30;99.90;;;;;;5065564;28;20409;-75
2023/09/04 11:11:43;;;;;;;4.05;2.88;;;26.40;99.90;;;;;;5069414;28;20039;-76
2023/09/04 11:14:11;;;;;;;5.13;2.80;;;26.20;99.90;;;;;;5072069;28;20029;-76
2023/09/04 11:16:42;;;;;;;5.25;3.20;;;26.20;99.90;;;;;;5070950;28;20024;-76
2023/09/04 11:19:13;;;;;;;3.63;3.35;;;26.20;99.90;;;;;;5073493;28;20021;-74
2023/09/04 11:21:43;;;;;;;3.57;3.27;;;26.30;99.90;;;;;;5070895;28;20029;-75
2023/09/04 11:24:09;;;;;;;4.38;3.38;;;26.30;99.90;;;;;;5076280;28;20020;-75
2023/09/04 11:26:35;;;;;;;6.35;3.40;;;26.30;99.90;;;;;;5069648;28;20388;-74
2023/09/04 11:29:02;;;;;;;6.57;3.40;;;26.30;99.90;;;;;;5073747;28;20056;-75
2023/09/04 11:31:29;;;;;;;3.38;3.08;;;26.40;99.90;;;;;;5075213;28;20013;-74
2023/09/04 11:33:56;;;;;;;3.00;2.80;;;26.40;99.90;;;;;;5072495;28;20021;-74
2023/09/04 11:36:23;;;;;;;2.85;2.65;;;26.30;99.90;;;;;;5071674;28;20029;-74
2023/09/04 11:39:12;;;;;;;3.20;2.95;;;26.30;99.90;;;;;;5069889;28;20032;-74
2023/09/04 11:41:38;;;;;;;3.50;2.92;;;26.50;99.90;;;;;;5076692;28;20020;-75
2023/09/04 11:44:06;;;;;;;3.17;2.83;;;26.60;99.90;;;;;;5068858;28;20025;-74
2023/09/04 11:46:35;;;;;;;2.90;2.60;;;26.70;99.90;;;;;;5072873;28;20376;-74
2023/09/04 11:49:04;;;;;;;3.10;2.80;;;26.70;99.90;;;;;;5062470;28;20082;-75
2023/09/04 11:51:33;;;;;;;2.97;2.65;;;26.60;99.90;;;;;;5070667;28;20366;-73
2023/09/04 11:53:59;;;;;;;3.08;2.80;;;26.70;99.90;;;;;;5080209;28;20111;-76
2023/09/04 11:56:25;;;;;;;3.50;3.15;;;26.90;99.90;;;;;;5070829;28;20115;-75
2023/09/04 11:58:50;;;;;;;4.45;2.50;;;27.00;99.90;;;;;;5075451;28;20102;-74
2023/09/04 12:01:16;;;;;;;5.82;3.05;;;27.00;99.90;;;;;;5073079;28;20020;-74
2023/09/04 12:03:42;;;;;;;8.02;3.58;;;27.10;99.90;;;;;;5071852;28;20036;-75
2023/09/04 12:06:09;;;;;;;5.13;2.72;;;27.00;99.90;;;;;;5074316;28;20031;-75
2023/09/04 12:08:35;;;;;;;5.07;3.20;;;27.00;99.90;;;;;;5072986;28;20052;-75
2023/09/04 12:11:02;;;;;;;4.20;2.70;;;27.00;99.90;;;;;;5080748;28;20028;-75
2023/09/04 12:13:27;;;;;;;4.70;2.88;;;27.10;99.90;;;;;;5075764;28;20017;-75
2023/09/04 12:16:05;;;;;;;4.00;2.70;;;27.30;99.90;;;;;;5078490;28;20031;-75
2023/09/04 12:18:34;;;;;;;4.00;2.50;;;27.30;99.90;;;;;;5082796;28;20024;-75
2023/09/04 12:21:00;;;;;;;3.72;2.53;;;27.30;99.90;;;;;;5066262;28;20064;-75
2023/09/04 12:23:45;;;;;;;5.85;2.97;;;27.40;99.90;;;;;;5070307;28;20056;-75
2023/09/04 12:26:13;;;;;;;4.43;2.40;;;27.30;99.90;;;;;;5074748;28;20039;-75
2023/09/04 12:28:40;;;;;;;4.82;2.50;;;27.50;99.90;;;;;;5074513;28;20041;-75
2023/09/04 12:31:08;;;;;;;2.33;2.08;;;27.50;99.90;;;;;;5074697;28;20029;-74
2023/09/04 12:33:40;;;;;;;4.03;2.17;;;27.60;99.90;;;;;;5072423;28;20032;-73
2023/09/04 12:36:08;;;;;;;;;;;27.60;99.90;;;;;;5070988;28;20024;-73